Time;durP1;ratioP1;P1;durP2;ratioP2;P2;SDS_P1;SDS_P2;PMS_P1;PMS_P2;Temp;Humidity;BMP_temperature;BMP_pressure;BME280_temperature;BME280_humidity;BME280_pressure;Samples;Min_cycle;Max_cycle;Signal;HPM_P1;HPM_P2
2024/02/05 00:00:13;;;;;;;14.23;3.60;;;;;;;14.71;63.96;101949.28;4965107;28;124241;-82
2024/02/05 00:02:43;;;;;;;15.00;3.22;;;;;;;14.72;63.88;101959.03;4963034;28;115258;-82
2024/02/05 00:05:11;;;;;;;14.18;2.95;;;;;;;14.71;63.86;101959.97;4984127;28;113367;-82
2024/02/05 00:07:39;;;;;;;17.15;3.08;;;;;;;14.73;63.79;101958.97;4954703;28;124368;-82
2024/02/05 00:10:07;;;;;;;14.40;3.20;;;;;;;14.72;63.75;101961.72;4985524;28;123544;-83
2024/02/05 00:12:35;;;;;;;14.90;3.30;;;;;;;14.72;63.71;101951.03;4961246;28;114193;-83
2024/02/05 00:15:04;;;;;;;16.50;3.22;;;;;;;14.71;63.50;101959.97;4986792;28;113889;-82
2024/02/05 00:17:32;;;;;;;14.40;3.20;;;;;;;14.72;63.49;101961.72;4960281;28;124083;-82
2024/02/05 00:19:59;;;;;;;16.30;3.72;;;;;;;14.73;63.07;101963.41;4972906;28;123622;-82
2024/02/05 00:22:27;;;;;;;18.95;3.53;;;;;;;14.73;63.32;101958.09;4965790;28;113147;-82
2024/02/05 00:24:54;;;;;;;15.25;3.35;;;;;;;14.73;63.40;101966.09;4969151;28;113765;-81
2024/02/05 00:27:22;;;;;;;11.25;3.22;;;;;;;14.74;63.05;101970.50;4976938;28;123935;-81
2024/02/05 00:29:49;;;;;;;13.00;2.90;;;;;;;14.73;63.17;101963.41;4950544;28;123190;-82
2024/02/05 00:32:16;;;;;;;18.38;3.75;;;;;;;14.73;63.18;101974.09;4969971;28;116094;-80
2024/02/05 00:34:43;;;;;;;14.88;3.10;;;;;;;14.72;63.00;101972.38;4970547;28;114558;-80
2024/02/05 00:37:11;;;;;;;19.88;4.00;;;;;;;14.73;63.14;101963.41;4965515;28;123463;-80
2024/02/05 00:39:38;;;;;;;16.92;3.83;;;;;;;14.73;63.08;101963.41;4968659;28;125095;-80
2024/02/05 00:42:05;;;;;;;12.60;3.38;;;;;;;14.74;62.92;101975.84;4963804;28;114433;-81
2024/02/05 00:44:32;;;;;;;14.40;3.63;;;;;;;14.74;62.76;101967.84;4962516;28;114116;-82
2024/02/05 00:47:01;;;;;;;15.60;3.08;;;;;;;14.74;62.71;101970.50;4978365;28;125225;-83
2024/02/05 00:49:28;;;;;;;13.98;3.47;;;;;;;14.74;62.88;101967.84;4963658;28;124589;-80
2024/02/05 00:51:55;;;;;;;18.08;3.60;;;;;;;14.74;62.50;101981.16;4962439;28;113359;-80
2024/02/05 00:54:22;;;;;;;13.95;3.58;;;;;;;14.72;62.52;101961.72;4979147;28;114205;-80
2024/02/05 00:56:49;;;;;;;11.77;2.92;;;;;;;14.72;62.54;101967.03;4966599;28;124201;-80
2024/02/05 00:59:17;;;;;;;14.98;3.38;;;;;;;14.71;62.67;101965.28;4962493;28;123089;-81
2024/02/05 01:01:45;;;;;;;15.43;3.38;;;;;;;14.70;62.62;101961.78;4971917;28;113979;-81
2024/02/05 01:04:13;;;;;;;22.70;3.60;;;;;;;14.69;62.45;101968.06;4956943;28;113541;-81
2024/02/05 01:06:40;;;;;;;17.77;3.47;;;;;;;14.66;62.29;101967.31;4969263;28;123712;-80
2024/02/05 01:09:09;;;;;;;17.92;3.83;;;;;;;14.66;62.39;101967.31;4968409;28;123043;-81
2024/02/05 01:11:36;;;;;;;21.75;3.67;;;;;;;14.64;62.54;101958.53;4983022;28;114074;-80
2024/02/05 01:14:04;;;;;;;20.08;3.78;;;;;;;14.60;62.28;101963.97;4993704;28;113442;-81
2024/02/05 01:16:31;;;;;;;26.45;3.58;;;;;;;14.59;62.31;101967.56;4978533;28;123979;-80
2024/02/05 01:18:59;;;;;;;21.60;3.50;;;;;;;14.57;62.17;101969.44;4995553;28;125152;-80
2024/02/05 01:21:26;;;;;;;17.27;3.70;;;;;;;14.54;62.24;101964.22;4993626;28;114580;-80
2024/02/05 01:23:54;;;;;;;20.83;3.80;;;;;;;14.51;62.09;101959.03;4988552;28;115301;-81
2024/02/05 01:26:21;;;;;;;17.40;3.90;;;;;;;14.48;62.19;101963.63;4991590;28;121979;-81
2024/02/05 01:28:49;;;;;;;23.80;4.03;;;;;;;14.44;62.10;101952.22;4969974;28;123238;-81
2024/02/05 01:31:16;;;;;;;18.48;3.60;;;;;;;14.41;62.04;101968.38;4993067;28;115182;-81
2024/02/05 01:33:43;;;;;;;19.88;3.80;;;;;;;14.37;62.02;101961.41;4986322;28;112312;-80
2024/02/05 01:36:11;;;;;;;20.30;3.75;;;;;;;14.32;62.17;101952.75;4989697;28;124475;-81
2024/02/05 01:38:38;;;;;;;17.75;3.88;;;;;;;14.29;62.06;101955.56;4976707;28;122159;-81
2024/02/05 01:41:05;;;;;;;19.00;3.78;;;;;;;14.27;62.22;101954.75;4977139;28;113271;-81
2024/02/05 01:43:32;;;;;;;21.20;3.90;;;;;;;14.25;62.14;101956.63;4992851;28;114891;-81
2024/02/05 01:46:01;;;;;;;18.77;3.45;;;;;;;14.23;62.15;101955.81;4984914;28;123933;-81
2024/02/05 01:48:33;;;;;;;16.83;4.03;;;;;;;14.17;62.23;101948.94;4949541;28;122102;-80
2024/02/05 01:51:01;;;;;;;15.98;3.67;;;;;;;14.14;62.20;101957.91;4955479;28;112632;-81
2024/02/05 01:53:29;;;;;;;20.10;3.78;;;;;;;14.13;62.17;101952.69;4962894;28;114044;-81
2024/02/05 01:55:57;;;;;;;20.25;4.18;;;;;;;14.11;62.22;101955.41;4969539;28;123319;-81
2024/02/05 01:58:25;;;;;;;17.05;3.88;;;;;;;14.08;62.20;101955.53;4958144;28;124465;-81
2024/02/05 02:00:54;;;;;;;19.13;4.22;;;;;;;14.06;62.23;101946.72;4969357;28;114284;-81
2024/02/05 02:03:22;;;;;;;21.90;4.05;;;;;;;14.04;62.32;101948.59;4953046;28;112910;-81
2024/02/05 02:05:49;;;;;;;21.88;4.25;;;;;;;14.02;62.45;101939.81;4972616;28;123276;-81
2024/02/05 02:08:18;;;;;;;18.08;4.20;;;;;;;13.98;62.31;101943.53;4962999;28;124100;-81
2024/02/05 02:10:46;;;;;;;26.23;4.50;;;;;;;13.97;62.42;101947.13;4969569;28;114232;-81
2024/02/05 02:13:14;;;;;;;19.55;4.40;;;;;;;13.95;62.37;101949.84;4974214;28;115441;-81
2024/02/05 02:15:49;;;;;;;23.40;4.55;;;;;;;13.95;62.40;101943.66;4966007;28;123145;-81
2024/02/05 02:18:19;;;;;;;21.25;4.47;;;;;;;13.94;62.53;101941.94;4964447;28;121875;-81
2024/02/05 02:20:47;;;;;;;24.85;4.28;;;;;;;13.94;62.47;101947.25;4959998;28;114224;-80
2024/02/05 02:23:19;;;;;;;17.77;4.38;;;;;;;13.93;62.56;101945.50;4956911;28;114321;-81
2024/02/05 02:25:50;;;;;;;17.65;4.25;;;;;;;13.92;62.73;101943.75;4949312;28;123322;-82
2024/02/05 02:28:17;;;;;;;18.77;4.47;;;;;;;13.90;62.49;101943.84;4965210;28;123787;-81
2024/02/05 02:30:45;;;;;;;25.58;4.85;;;;;;;13.89;62.62;101941.25;4945337;28;114061;-81
2024/02/05 02:33:31;;;;;;;18.15;4.63;;;;;;;13.87;62.67;101946.63;4968983;28;114263;-80
2024/02/05 02:36:07;;;;;;;23.45;4.50;;;;;;;13.86;62.61;101941.38;4956961;28;124023;-81
2024/02/05 02:39:15;;;;;;;23.23;4.95;;;;;;;13.86;62.74;101949.34;4963523;28;123833;-81
2024/02/05 02:41:43;;;;;;;23.60;5.00;;;;;;;13.84;62.74;101941.41;4916298;28;112167;-81
2024/02/05 02:44:11;;;;;;;18.90;4.22;;;;;;;13.85;62.69;101958.28;4956239;28;113950;-81
2024/02/05 02:46:40;;;;;;;16.92;4.57;;;;;;;13.83;62.83;101951.22;4983488;28;124382;-81
2024/02/05 02:49:07;;;;;;;19.67;4.90;;;;;;;13.82;62.81;101949.50;4952027;28;123713;-81
2024/02/05 02:51:35;;;;;;;24.52;5.07;;;;;;;13.82;62.93;101941.50;4976558;28;113084;-81
2024/02/05 02:54:02;;;;;;;19.58;4.90;;;;;;;13.84;62.93;101946.75;4967123;28;113074;-81
2024/02/05 02:56:30;;;;;;;22.27;5.00;;;;;;;13.85;62.89;101936.97;4959150;28;124746;-80
2024/02/05 02:58:57;;;;;;;20.70;5.30;;;;;;;13.85;62.77;101942.31;4962227;28;126757;-80
2024/02/05 03:01:24;;;;;;;22.50;5.18;;;;;;;13.84;62.71;101944.09;4975102;28;115645;-80
2024/02/05 03:03:51;;;;;;;23.17;4.85;;;;;;;13.83;62.80;101945.88;4963925;28;113876;-81
2024/02/05 03:06:19;;;;;;;17.30;5.15;;;;;;;13.83;62.70;101940.56;4972727;28;124245;-81
2024/02/05 03:08:46;;;;;;;20.98;5.15;;;;;;;13.83;62.92;101945.03;4957959;28;123651;-81
2024/02/05 03:11:13;;;;;;;20.42;5.25;;;;;;;13.83;62.89;101935.25;4966500;28;114101;-81
2024/02/05 03:13:41;;;;;;;18.83;4.90;;;;;;;13.84;62.95;101936.09;4963739;28;114819;-81
2024/02/05 03:16:08;;;;;;;23.13;5.25;;;;;;;13.83;62.32;101927.25;4970393;28;123217;-80
2024/02/05 03:18:35;;;;;;;21.98;5.25;;;;;;;13.84;62.98;101928.09;4967710;28;122212;-81
2024/02/05 03:21:03;;;;;;;26.85;5.20;;;;;;;13.83;62.89;101940.56;4964696;28;112837;-80
2024/02/05 03:23:30;;;;;;;17.52;5.00;;;;;;;13.83;62.78;101926.41;4990072;28;114920;-80
2024/02/05 03:25:57;;;;;;;24.92;5.22;;;;;;;13.83;62.74;101940.56;4991284;28;123622;-80
2024/02/05 03:28:26;;;;;;;25.38;5.60;;;;;;;13.83;62.70;101951.22;4975044;28;123167;-80
2024/02/05 03:30:54;;;;;;;25.13;5.90;;;;;;;13.85;62.62;101944.97;4965832;28;114470;-80
2024/02/05 03:33:22;;;;;;;25.13;5.18;;;;;;;13.85;62.74;101948.50;4953173;28;113492;-81
2024/02/05 03:35:49;;;;;;;17.95;5.03;;;;;;;13.86;62.95;101949.34;4965317;28;124865;-81
2024/02/05 03:38:16;;;;;;;23.13;5.38;;;;;;;13.87;62.76;101953.75;4957078;28;122674;-81
2024/02/05 03:40:43;;;;;;;18.23;5.10;;;;;;;13.86;62.61;101954.69;4966876;28;114192;-81
2024/02/05 03:43:11;;;;;;;18.63;5.10;;;;;;;13.87;62.73;101946.63;4973983;28;114523;-81
2024/02/05 03:45:38;;;;;;;18.33;5.45;;;;;;;13.85;62.55;101951.16;4984560;28;125792;-81
2024/02/05 03:48:06;;;;;;;17.98;5.40;;;;;;;13.87;62.63;101956.44;4973256;28;124264;-82
2024/02/05 03:50:33;;;;;;;25.42;5.57;;;;;;;13.87;62.72;101945.78;4968357;28;115357;-81
2024/02/05 03:53:02;;;;;;;15.13;5.47;;;;;;;13.86;62.65;101950.22;4968512;28;114326;-82
2024/02/05 03:55:30;;;;;;;30.13;5.25;;;;;;;13.87;62.79;101956.44;4983059;28;122998;-82
2024/02/05 03:58:06;;;;;;;23.52;5.38;;;;;;;13.86;62.44;101955.53;4962113;28;122963;-81
2024/02/05 04:00:33;;;;;;;21.33;5.80;;;;;;;13.87;62.51;101948.44;4968829;28;115824;-81
2024/02/05 04:03:00;;;;;;;17.88;5.45;;;;;;;13.85;62.43;101960.94;4969522;28;114153;-81
2024/02/05 04:05:30;;;;;;;18.23;5.60;;;;;;;13.86;62.56;101949.34;4970391;28;124628;-82
2024/02/05 04:07:58;;;;;;;27.48;5.70;;;;;;;13.87;62.53;101951.09;4968188;28;123189;-81
2024/02/05 04:10:26;;;;;;;20.17;5.40;;;;;;;13.86;62.56;101960.00;4962928;28;113525;-81
2024/02/05 04:12:54;;;;;;;25.35;5.45;;;;;;;13.86;62.58;101950.22;4968859;28;114177;-81
2024/02/05 04:15:23;;;;;;;20.80;5.50;;;;;;;13.87;62.41;101951.09;4964678;28;124371;-81
2024/02/05 04:17:50;;;;;;;24.52;5.05;;;;;;;13.87;62.51;101961.75;4978157;28;123838;-81
2024/02/05 04:20:17;;;;;;;19.27;5.20;;;;;;;13.86;62.53;101949.34;4978079;28;112161;-81
2024/02/05 04:22:44;;;;;;;22.27;5.47;;;;;;;13.86;62.44;101954.69;4969811;28;113369;-81
2024/02/05 04:25:12;;;;;;;23.10;5.53;;;;;;;13.85;62.52;101952.97;4968100;28;124346;-81
2024/02/05 04:27:39;;;;;;;25.08;5.95;;;;;;;13.85;62.52;101952.97;4962679;28;125265;-81
2024/02/05 04:30:07;;;;;;;22.80;5.22;;;;;;;13.83;62.36;101953.88;4970723;28;112610;-81
2024/02/05 04:32:34;;;;;;;20.58;5.22;;;;;;;13.82;62.49;101954.81;4963597;28;114829;-81
2024/02/05 04:35:01;;;;;;;22.80;5.47;;;;;;;13.81;62.34;101955.75;4972116;28;123245;-82
2024/02/05 04:37:29;;;;;;;28.77;5.47;;;;;;;13.81;62.35;101953.06;4968937;28;124108;-81
2024/02/05 04:39:56;;;;;;;23.48;5.30;;;;;;;13.81;62.45;101955.75;4955843;28;115056;-81
2024/02/05 04:42:23;;;;;;;23.13;5.32;;;;;;;13.82;62.41;101960.16;4970485;28;115195;-81
2024/02/05 04:44:50;;;;;;;20.25;6.00;;;;;;;13.80;62.30;101951.31;4981740;28;122923;-81
2024/02/05 04:47:17;;;;;;;24.17;5.93;;;;;;;13.79;62.22;101954.94;4957583;28;122835;-81
2024/02/05 04:49:47;;;;;;;23.42;6.00;;;;;;;13.79;62.30;101960.25;4973411;28;114301;-81
2024/02/05 04:52:14;;;;;;;25.65;5.93;;;;;;;13.79;62.39;101946.94;4970371;28;113342;-81
2024/02/05 04:54:42;;;;;;;18.63;5.47;;;;;;;13.78;62.25;101945.19;4954153;28;123491;-82
2024/02/05 04:57:09;;;;;;;26.67;5.80;;;;;;;13.79;62.22;101949.63;4980714;28;123233;-81
2024/02/05 04:59:36;;;;;;;26.00;5.97;;;;;;;13.78;62.32;101950.53;4948311;28;113721;-82
2024/02/05 05:02:04;;;;;;;24.40;5.65;;;;;;;13.76;62.23;101949.72;4971992;28;113770;-81
2024/02/05 05:04:31;;;;;;;26.90;6.07;;;;;;;13.77;62.47;101951.47;4959101;28;124369;-81
2024/02/05 05:06:59;;;;;;;24.55;5.95;;;;;;;13.75;62.38;101941.78;4971441;28;125666;-81
2024/02/05 05:09:27;;;;;;;21.58;5.60;;;;;;;13.73;62.35;101939.22;4971697;28;113873;-81
2024/02/05 05:11:54;;;;;;;26.42;5.75;;;;;;;13.73;62.24;101943.66;4968418;28;114054;-82
2024/02/05 05:14:21;;;;;;;22.65;5.32;;;;;;;13.73;62.20;101933.91;4962681;28;123382;-82
2024/02/05 05:16:48;;;;;;;18.90;6.03;;;;;;;13.71;62.22;101941.09;4980290;28;124002;-81
2024/02/05 05:19:16;;;;;;;22.55;5.85;;;;;;;13.71;62.15;101941.09;4965626;28;114163;-81
2024/02/05 05:21:43;;;;;;;22.10;6.30;;;;;;;13.69;62.18;101942.91;4972358;28;114130;-81
2024/02/05 05:24:12;;;;;;;21.80;5.60;;;;;;;13.69;62.30;101942.91;4975093;28;123333;-81
2024/02/05 05:26:39;;;;;;;21.02;5.82;;;;;;;13.69;62.12;101947.38;4959559;28;123500;-81
2024/02/05 05:29:06;;;;;;;23.92;5.78;;;;;;;13.68;61.87;101941.19;4963975;28;114258;-81
2024/02/05 05:31:33;;;;;;;21.00;6.28;;;;;;;13.67;62.14;101941.25;4987039;28;113972;-81
2024/02/05 05:34:00;;;;;;;20.70;5.70;;;;;;;13.66;62.25;101936.88;4986496;28;124247;-82
2024/02/05 05:36:28;;;;;;;23.45;5.85;;;;;;;13.65;62.16;101930.66;4969914;28;124081;-82
2024/02/05 05:38:55;;;;;;;17.77;5.88;;;;;;;13.64;61.98;101928.94;4959534;28;114427;-81
2024/02/05 05:41:22;;;;;;;21.70;7.18;;;;;;;13.62;61.99;101933.47;4962415;28;112173;-81
2024/02/05 05:43:52;;;;;;;20.73;6.63;;;;;;;13.63;61.95;101932.53;4964295;28;124766;-81
2024/02/05 05:46:19;;;;;;;26.80;6.15;;;;;;;13.61;61.93;101921.06;4960971;28;123961;-82
2024/02/05 05:48:46;;;;;;;24.00;6.25;;;;;;;13.60;62.10;101922.00;4967915;28;114509;-81
2024/02/05 05:51:14;;;;;;;22.65;6.85;;;;;;;13.58;62.03;101918.53;4976872;28;112774;-82
2024/02/05 05:53:41;;;;;;;22.95;7.18;;;;;;;13.58;62.03;101907.88;4963731;28;123523;-81
2024/02/05 05:56:09;;;;;;;22.48;6.88;;;;;;;13.56;62.07;101925.69;4969312;28;123853;-81
2024/02/05 05:58:36;;;;;;;27.23;7.07;;;;;;;13.55;61.95;101919.53;4975491;28;114188;-81
2024/02/05 06:01:05;;;;;;;20.42;7.60;;;;;;;13.55;61.91;101913.34;4968804;28;113198;-81
2024/02/05 06:03:33;;;;;;;23.50;7.18;;;;;;;13.55;61.84;101913.34;4984519;28;124369;-81
2024/02/05 06:06:00;;;;;;;23.52;7.45;;;;;;;13.54;61.99;101917.81;4958801;28;123904;-81
2024/02/05 06:08:27;;;;;;;25.63;7.45;;;;;;;13.53;61.80;101915.19;4983395;28;114514;-81
2024/02/05 06:10:55;;;;;;;22.02;7.32;;;;;;;13.51;61.66;101914.41;4975061;28;114078;-80
2024/02/05 06:13:22;;;;;;;20.00;7.38;;;;;;;13.52;61.87;101918.78;4963263;28;123742;-81
2024/02/05 06:15:49;;;;;;;24.30;7.45;;;;;;;13.52;61.90;101908.13;4970839;28;124304;-81
2024/02/05 06:18:16;;;;;;;25.42;8.55;;;;;;;13.51;61.78;101906.41;4962425;28;115461;-81
2024/02/05 06:20:44;;;;;;;25.25;7.82;;;;;;;13.50;61.63;101899.34;4968269;28;114321;-81
2024/02/05 06:23:11;;;;;;;24.88;8.07;;;;;;;13.50;61.71;101894.03;4980977;28;125381;-81
2024/02/05 06:25:38;;;;;;;26.70;8.25;;;;;;;13.48;61.53;101902.06;4968122;28;123915;-82
2024/02/05 06:28:05;;;;;;;18.33;7.80;;;;;;;13.46;61.75;101897.75;4959019;28;114398;-81
2024/02/05 06:30:40;;;;;;;27.08;7.93;;;;;;;13.44;61.68;101900.47;4951575;28;113635;-82
2024/02/05 06:33:07;;;;;;;33.80;8.23;;;;;;;13.43;61.61;101915.56;4971996;28;124134;-81
2024/02/05 06:35:35;;;;;;;22.27;8.15;;;;;;;13.43;61.53;101923.53;4961044;28;123420;-81
2024/02/05 06:38:02;;;;;;;21.08;7.80;;;;;;;13.41;61.44;101917.41;4968490;28;113373;-82
2024/02/05 06:40:29;;;;;;;25.27;8.90;;;;;;;13.41;61.53;101916.53;4963533;28;113969;-82
2024/02/05 06:42:56;;;;;;;21.17;8.43;;;;;;;13.40;61.53;101936.09;4984393;28;122675;-81
2024/02/05 06:45:24;;;;;;;22.30;7.88;;;;;;;13.40;61.61;101936.09;5011951;28;124652;-81
2024/02/05 06:47:51;;;;;;;27.42;8.82;;;;;;;13.39;61.42;101929.94;4983396;28;114611;-81
2024/02/05 06:50:19;;;;;;;24.60;7.70;;;;;;;13.39;61.62;101929.94;4998182;28;114694;-80
2024/02/05 06:52:48;;;;;;;24.65;8.43;;;;;;;13.39;61.40;101918.38;4970967;28;123599;-81
2024/02/05 06:55:15;;;;;;;29.77;8.57;;;;;;;13.38;61.69;101912.22;4990390;28;124167;-81
2024/02/05 06:57:42;;;;;;;17.38;7.80;;;;;;;13.38;61.42;101922.00;4993583;28;114093;-81
2024/02/05 07:00:12;;;;;;;20.52;8.60;;;;;;;13.36;61.29;101919.38;4996591;28;113625;-80
2024/02/05 07:02:39;;;;;;;21.30;8.70;;;;;;;13.34;61.30;101926.56;4979612;28;123595;-81
2024/02/05 07:05:07;;;;;;;22.50;6.47;;;;;;;13.34;61.37;101921.25;5008526;28;124394;-81
2024/02/05 07:07:34;;;;;;;19.65;6.05;;;;;;;13.33;61.52;101930.16;4982122;28;113146;-81
2024/02/05 07:10:03;;;;;;;20.63;6.70;;;;;;;13.33;61.32;101930.16;4997753;28;113003;-82
2024/02/05 07:12:30;;;;;;;20.10;5.97;;;;;;;13.31;61.57;101926.69;4965494;28;123950;-81
2024/02/05 07:14:59;;;;;;;11.43;5.20;;;;;;;13.31;61.68;101934.66;4970198;28;123220;-81
2024/02/05 07:17:33;;;;;;;18.95;6.03;;;;;;;13.30;61.70;101935.59;4982228;28;114250;-81
2024/02/05 07:20:01;;;;;;;21.10;6.40;;;;;;;13.31;61.54;101942.63;4954269;28;113923;-81
2024/02/05 07:22:30;;;;;;;17.95;6.10;;;;;;;13.31;61.59;101941.78;4978460;28;124154;-81
2024/02/05 07:24:58;;;;;;;15.10;5.63;;;;;;;13.30;61.65;101946.25;4984760;28;122143;-81
2024/02/05 07:27:26;;;;;;;16.20;5.57;;;;;;;13.29;61.67;101960.44;4973263;28;115281;-81
2024/02/05 07:29:53;;;;;;;17.27;6.30;;;;;;;13.30;61.71;101956.88;4955543;28;114484;-81
2024/02/05 07:32:21;;;;;;;16.08;5.22;;;;;;;13.30;61.69;101962.22;4969090;28;123808;-82
2024/02/05 07:34:48;;;;;;;21.08;5.95;;;;;;;13.29;61.64;101957.75;4962110;28;123931;-82
2024/02/05 07:37:15;;;;;;;13.43;4.95;;;;;;;13.27;61.73;101962.28;4958171;28;113914;-82
2024/02/05 07:39:43;;;;;;;11.07;5.22;;;;;;;13.28;61.65;101964.03;4966982;28;113522;-81
2024/02/05 07:42:10;;;;;;;17.10;5.63;;;;;;;13.28;61.76;101964.03;4978299;28;123353;-81
2024/02/05 07:44:38;;;;;;;16.02;5.25;;;;;;;13.28;61.75;101969.34;4955492;28;125672;-81
2024/02/05 07:47:05;;;;;;;18.40;5.20;;;;;;;13.27;61.77;101964.94;4971955;28;114001;-82
2024/02/05 07:49:34;;;;;;;15.55;5.20;;;;;;;13.29;61.68;101956.91;4969965;28;113811;-81
2024/02/05 07:52:01;;;;;;;16.52;5.75;;;;;;;13.30;61.74;101966.59;4952681;28;123386;-82
2024/02/05 07:54:29;;;;;;;23.42;5.80;;;;;;;13.28;61.80;101990.63;4979582;28;123236;-81
2024/02/05 07:57:02;;;;;;;23.02;5.50;;;;;;;13.27;61.83;101962.28;4967026;28;115310;-81
2024/02/05 07:59:29;;;;;;;18.27;5.82;;;;;;;13.27;61.79;101962.28;4971540;28;113435;-81
2024/02/05 08:01:57;;;;;;;12.50;4.68;;;;;;;13.26;61.80;101971.22;4974495;28;123633;-82
2024/02/05 08:04:24;;;;;;;17.38;5.60;;;;;;;13.27;61.89;101977.38;4977050;28;122722;-81
2024/02/05 08:06:51;;;;;;;16.98;5.25;;;;;;;13.27;61.92;101972.94;4968797;28;114886;-81
2024/02/05 08:09:19;;;;;;;14.43;5.35;;;;;;;13.26;61.71;101971.22;4951246;28;113040;-81
2024/02/05 08:11:46;;;;;;;15.18;5.53;;;;;;;13.25;61.81;101980.09;4963189;28;124491;-81
2024/02/05 08:14:14;;;;;;;17.55;5.47;;;;;;;13.25;61.90;101980.09;4971703;28;124125;-81
2024/02/05 08:16:41;;;;;;;15.88;5.80;;;;;;;13.25;61.81;101972.13;4986669;28;114584;-82
2024/02/05 08:19:09;;;;;;;16.63;6.22;;;;;;;13.25;61.85;101969.47;4971372;28;113906;-81
2024/02/05 08:21:36;;;;;;;16.40;5.68;;;;;;;13.25;61.76;101974.78;4966673;28;123730;-81
2024/02/05 08:24:04;;;;;;;18.38;6.05;;;;;;;13.26;61.80;101965.88;4963757;28;123045;-81
2024/02/05 08:26:35;;;;;;;20.13;6.40;;;;;;;13.27;61.81;101958.75;4964745;28;113449;-81
2024/02/05 08:29:03;;;;;;;15.40;5.80;;;;;;;13.26;61.77;101965.88;4956747;28;115655;-82
2024/02/05 08:31:30;;;;;;;15.30;5.05;;;;;;;13.28;61.76;101966.69;4975665;28;125368;-82
2024/02/05 08:33:57;;;;;;;18.77;5.13;;;;;;;13.30;61.83;101964.88;4952616;28;123332;-82
2024/02/05 08:36:25;;;;;;;17.42;5.35;;;;;;;13.30;61.79;101962.22;4968965;28;114754;-81
2024/02/05 08:38:52;;;;;;;21.02;5.25;;;;;;;13.31;61.78;101961.25;4952406;28;113349;-82
2024/02/05 08:41:19;;;;;;;19.15;5.13;;;;;;;13.34;61.83;101958.50;4961188;28;122344;-82
2024/02/05 08:43:46;;;;;;;14.18;5.35;;;;;;;13.35;61.72;101960.22;4982650;28;122931;-82
2024/02/05 08:46:14;;;;;;;18.90;4.55;;;;;;;13.38;61.92;101968.09;4964286;28;115243;-82
2024/02/05 08:48:41;;;;;;;16.75;5.47;;;;;;;13.39;61.83;101961.84;4966060;28;114031;-82
2024/02/05 08:51:09;;;;;;;14.90;4.88;;;;;;;13.39;61.86;101966.28;4966627;28;121730;-81
2024/02/05 08:53:37;;;;;;;11.68;4.68;;;;;;;13.40;61.71;101963.56;4987060;28;122979;-82
2024/02/05 08:56:05;;;;;;;18.55;5.07;;;;;;;13.41;61.89;101965.31;4953510;28;113094;-82
2024/02/05 08:58:32;;;;;;;14.82;4.95;;;;;;;13.41;61.69;101960.00;4965426;28;113771;-81
2024/02/05 09:00:59;;;;;;;20.63;5.22;;;;;;;13.41;61.79;101954.69;4968518;28;124307;-82
2024/02/05 09:03:27;;;;;;;16.60;4.97;;;;;;;13.41;61.78;101960.00;4984651;28;124291;-82
2024/02/05 09:05:54;;;;;;;14.85;5.03;;;;;;;13.42;61.66;101956.41;4966342;28;114158;-82
2024/02/05 09:08:21;;;;;;;13.55;4.72;;;;;;;13.41;61.79;101949.34;4979006;28;113639;-82
2024/02/05 09:10:48;;;;;;;13.80;4.57;;;;;;;13.43;61.84;101955.47;4965912;28;124091;-81
2024/02/05 09:13:16;;;;;;;16.40;4.60;;;;;;;13.47;61.71;101952.69;4961112;28;123863;-82
2024/02/05 09:15:43;;;;;;;13.00;4.82;;;;;;;13.48;61.78;101959.75;4968839;28;114224;-80
2024/02/05 09:18:11;;;;;;;10.60;4.32;;;;;;;13.51;61.68;101956.97;4973207;28;113986;-81
2024/02/05 09:20:38;;;;;;;16.70;4.10;;;;;;;13.51;61.67;101955.19;4966738;28;123427;-82
2024/02/05 09:23:05;;;;;;;17.08;4.03;;;;;;;13.51;61.70;101960.50;4966999;28;123005;-81
2024/02/05 09:25:32;;;;;;;15.63;4.07;;;;;;;13.51;61.61;101970.28;4949382;28;113524;-82
2024/02/05 09:28:00;;;;;;;14.68;4.28;;;;;;;13.50;61.78;101965.88;4970534;28;113784;-81
2024/02/05 09:30:28;;;;;;;14.98;4.15;;;;;;;13.51;61.66;101971.16;4967195;28;124585;-81
2024/02/05 09:32:55;;;;;;;12.75;3.97;;;;;;;13.54;61.70;101964.81;4967814;28;124689;-81
2024/02/05 09:35:22;;;;;;;14.20;4.28;;;;;;;13.57;61.58;101959.38;4960268;28;114991;-82
2024/02/05 09:37:49;;;;;;;13.63;4.25;;;;;;;13.57;61.48;101964.72;4979287;28;114459;-81
2024/02/05 09:40:16;;;;;;;19.73;3.97;;;;;;;13.57;61.34;101967.38;4968249;28;124459;-81
2024/02/05 09:42:44;;;;;;;12.38;3.85;;;;;;;13.57;61.65;101975.38;4969926;28;124126;-81
2024/02/05 09:45:15;;;;;;;10.30;4.10;;;;;;;13.56;61.36;101973.63;4969824;28;114341;-81
2024/02/05 09:47:42;;;;;;;14.27;4.00;;;;;;;13.57;61.39;101970.03;4969308;28;113014;-81
2024/02/05 09:50:12;;;;;;;15.70;3.83;;;;;;;13.58;61.34;101958.44;4968162;28;124502;-81
2024/02/05 09:52:44;;;;;;;13.60;3.63;;;;;;;13.61;61.28;101961.00;4962409;28;123668;-82
2024/02/05 09:55:13;;;;;;;9.90;3.80;;;;;;;13.63;61.37;101953.81;4967709;28;113529;-81
2024/02/05 09:57:41;;;;;;;11.15;3.83;;;;;;;13.63;61.37;101959.13;4966349;28;114782;-81
2024/02/05 10:00:10;;;;;;;11.55;3.75;;;;;;;13.65;61.46;101967.94;4972610;28;124269;-82
2024/02/05 10:02:41;;;;;;;13.82;3.67;;;;;;;13.66;61.38;101964.34;4953383;28;124790;-82
2024/02/05 10:05:16;;;;;;;15.90;3.92;;;;;;;13.69;61.27;101974.84;4970948;28;114230;-82
2024/02/05 10:07:47;;;;;;;16.10;3.93;;;;;;;13.70;61.28;101992.59;4983829;28;112893;-82
2024/02/05 10:10:16;;;;;;;12.75;4.20;;;;;;;13.70;61.20;101971.28;4962058;28;126265;-81
2024/02/05 10:12:47;;;;;;;11.88;3.47;;;;;;;13.72;61.24;101964.09;4967082;28;123673;-81
2024/02/05 10:15:14;;;;;;;10.57;3.47;;;;;;;13.74;61.24;101961.38;4968594;28;115045;-81
2024/02/05 10:17:43;;;;;;;12.75;3.72;;;;;;;13.74;61.38;101959.56;4967461;28;114851;-81
2024/02/05 10:20:12;;;;;;;18.20;3.85;;;;;;;13.76;61.10;101960.38;4959325;28;122372;-81
2024/02/05 10:22:47;;;;;;;10.85;3.22;;;;;;;13.78;61.15;101961.19;4970418;28;124744;-82
2024/02/05 10:25:15;;;;;;;12.03;3.80;;;;;;;13.77;61.25;101956.81;4940464;28;114545;-80
2024/02/05 10:27:43;;;;;;;14.13;3.60;;;;;;;13.79;61.07;101954.94;4963307;28;116718;-79
2024/02/05 10:30:11;;;;;;;11.43;3.28;;;;;;;13.81;61.10;101947.75;4984176;28;125246;-80
2024/02/05 10:32:39;;;;;;;12.73;3.53;;;;;;;13.82;61.08;101949.50;4974762;28;124359;-80
2024/02/05 10:35:08;;;;;;;19.58;4.22;;;;;;;13.85;61.09;101943.16;4973666;28;113884;-80
2024/02/05 10:37:35;;;;;;;16.20;3.35;;;;;;;13.89;61.12;101949.25;4954836;28;113872;-80
2024/02/05 10:40:05;;;;;;;11.38;3.42;;;;;;;13.92;61.16;101938.44;4957187;28;124860;-81
2024/02/05 10:42:33;;;;;;;12.02;3.78;;;;;;;13.94;61.00;101937.47;4957629;28;124365;-80
2024/02/05 10:45:03;;;;;;;15.05;3.08;;;;;;;13.96;60.98;101937.41;4973016;28;112664;-80
2024/02/05 10:47:31;;;;;;;10.75;3.28;;;;;;;13.98;61.08;101932.88;4957945;28;113906;-80
2024/02/05 10:49:59;;;;;;;13.27;3.50;;;;;;;14.01;60.85;101938.94;4966342;28;124424;-79
2024/02/05 10:52:27;;;;;;;17.42;3.42;;;;;;;14.03;60.91;101936.19;4970258;28;122569;-79
2024/02/05 10:54:58;;;;;;;16.08;3.70;;;;;;;14.02;60.80;101934.47;4969360;28;113368;-79
2024/02/05 10:57:26;;;;;;;15.82;3.80;;;;;;;14.06;60.77;101924.56;4960164;28;113833;-79
2024/02/05 10:59:58;;;;;;;13.63;2.95;;;;;;;14.08;60.81;101934.22;4962116;28;123522;-81
2024/02/05 11:02:35;;;;;;;12.57;3.00;;;;;;;14.10;60.79;101937.69;4950589;28;124904;-80
2024/02/05 11:05:02;;;;;;;16.00;3.20;;;;;;;14.12;60.72;101930.47;4963280;28;114080;-81
2024/02/05 11:07:34;;;;;;;18.27;3.30;;;;;;;14.14;60.98;101928.63;4966069;28;114439;-80
2024/02/05 11:10:04;;;;;;;9.95;2.75;;;;;;;14.18;60.68;101914.25;4964966;28;124145;-81
2024/02/05 11:12:32;;;;;;;8.43;2.67;;;;;;;14.21;60.78;101908.78;4963394;28;123618;-81